Cape Saint James, Canada
Current Conditions -  °F | °C
As of 5:00 PM on Monday 20 Oct 2014 (Local Time) from CYZP Reporting Station
Clear Clear  
Wind Chill: 55°   Ceiling: Unl
Heat Index: 55°   Visibility: 9mi
Dew Point: 43°   Wind: 7mph
Humidity: 63%   Direction: 210°SSW
Pressure: 29.47"   Gusts: NA
Location:  51.94°N, 131.02°W
Report Text: CYZP 210000Z AUTO 21006KT 9SM CLR 13/06 A2947 RMK TS/LTNG TEMPO UNAVBL SLP978 DENSITY ALT 300FT
Loading
Personal Weather Stations






























Interactive Weather Map
Tropical Storm Tracking
New forecast layout! Learn more

10-Day Weather Forecast

Advertisements
Track Severe Weather on mobile